createdAt,value
2019-06-08T00:01:43.445Z,14.73
2019-06-08T00:05:48.598Z,14.88
2019-06-08T00:09:53.738Z,14.84
2019-06-08T00:13:59.162Z,15.02
2019-06-08T00:18:04.473Z,15.02
2019-06-08T00:22:09.678Z,15.04
2019-06-08T00:26:15.918Z,15.07
2019-06-08T00:30:21.397Z,15.03
2019-06-08T00:34:26.696Z,15.06
2019-06-08T00:38:31.840Z,15.14
2019-06-08T00:42:36.899Z,15.04
2019-06-08T00:46:42.042Z,15.07
2019-06-08T00:50:47.197Z,15.05
2019-06-08T00:54:52.293Z,15.00
2019-06-08T00:58:57.456Z,14.93
2019-06-08T01:03:02.582Z,14.92
2019-06-08T01:07:07.694Z,14.89
2019-06-08T01:11:12.803Z,14.77
2019-06-08T01:15:23.772Z,14.73
2019-06-08T01:19:25.222Z,14.69
2019-06-08T01:23:30.310Z,14.69
2019-06-08T01:27:35.486Z,14.63
2019-06-08T01:31:40.852Z,14.58
2019-06-08T01:35:45.984Z,14.51
2019-06-08T01:39:51.135Z,14.41
2019-06-08T01:43:56.214Z,14.42
2019-06-08T01:48:15.995Z,14.37
2019-06-08T01:52:09.249Z,14.43
2019-06-08T01:56:14.397Z,14.37
2019-06-08T02:00:29.630Z,14.21
2019-06-08T02:04:26.324Z,14.21
2019-06-08T02:08:32.606Z,14.13
2019-06-08T02:12:37.698Z,14.10
2019-06-08T02:16:42.872Z,14.19
2019-06-08T02:20:48.021Z,14.12
2019-06-08T02:24:53.079Z,14.12
2019-06-08T02:28:59.414Z,14.15
2019-06-08T02:33:06.575Z,14.09
2019-06-08T02:37:11.775Z,14.05
2019-06-08T02:41:16.907Z,14.10
2019-06-08T02:45:22.059Z,14.12
2019-06-08T02:49:28.988Z,14.16
2019-06-08T02:53:36.050Z,14.14
2019-06-08T02:57:42.813Z,14.22
2019-06-08T03:01:50.147Z,14.18
2019-06-08T03:05:57.503Z,14.18
2019-06-08T03:10:04.827Z,14.22
2019-06-08T03:14:10.080Z,14.18
2019-06-08T03:18:15.272Z,14.07
2019-06-08T03:22:20.411Z,14.02
2019-06-08T03:26:25.389Z,14.03
2019-06-08T03:30:30.483Z,14.03
2019-06-08T03:34:39.935Z,14.04
2019-06-08T03:38:44.486Z,14.00
2019-06-08T03:42:50.877Z,13.99
2019-06-08T03:46:56.160Z,13.95
2019-06-08T03:51:01.785Z,13.89
2019-06-08T03:55:06.962Z,13.85
2019-06-08T03:59:12.159Z,13.81
2019-06-08T04:03:17.277Z,13.85
2019-06-08T04:07:22.455Z,13.78
2019-06-08T04:11:27.524Z,13.82
2019-06-08T04:15:33.094Z,13.74
2019-06-08T04:19:39.836Z,13.70
2019-06-08T04:23:46.891Z,13.71
2019-06-08T04:27:52.291Z,13.65
2019-06-08T04:31:57.469Z,13.67
2019-06-08T04:36:02.517Z,13.66
2019-06-08T04:40:08.517Z,13.48
2019-06-08T04:44:13.651Z,13.48
2019-06-08T04:48:18.935Z,13.55
2019-06-08T04:52:24.157Z,13.51
2019-06-08T04:56:29.465Z,13.46
2019-06-08T05:00:34.589Z,13.48
2019-06-08T05:04:40.982Z,13.47
2019-06-08T05:08:47.356Z,13.42
2019-06-08T05:12:52.907Z,13.37
2019-06-08T05:16:57.996Z,13.31
2019-06-08T05:21:03.174Z,13.28
2019-06-08T05:25:08.796Z,13.30
2019-06-08T05:29:14.156Z,13.26
2019-06-08T05:33:19.241Z,13.22
2019-06-08T05:37:24.330Z,13.25
2019-06-08T05:41:29.400Z,13.25
2019-06-08T05:45:34.587Z,13.23
2019-06-08T05:49:39.788Z,13.26
2019-06-08T05:53:45.833Z,13.25
2019-06-08T05:57:51.064Z,13.18
2019-06-08T06:01:56.259Z,13.30
2019-06-08T06:06:01.364Z,13.26
2019-06-08T06:10:07.187Z,13.30
2019-06-08T06:14:12.288Z,13.36
2019-06-08T06:18:17.474Z,13.35
2019-06-08T06:22:22.601Z,13.31
2019-06-08T06:26:27.916Z,13.35
2019-06-08T06:30:33.036Z,13.30
2019-06-08T06:34:38.261Z,13.25
2019-06-08T06:38:43.799Z,13.29
2019-06-08T06:42:50.058Z,13.32
2019-06-08T06:46:55.265Z,13.37
2019-06-08T06:51:00.412Z,13.44
2019-06-08T06:55:06.021Z,13.31
2019-06-08T06:59:12.379Z,13.48
2019-06-08T07:03:17.457Z,13.23
2019-06-08T07:07:22.691Z,13.26
2019-06-08T07:11:27.882Z,13.52
2019-06-08T07:15:41.127Z,13.56
2019-06-08T07:19:39.912Z,13.67
2019-06-08T07:23:46.267Z,13.88
2019-06-08T07:27:52.705Z,14.07
2019-06-08T07:31:59.233Z,14.21
2019-06-08T07:36:04.480Z,14.13
2019-06-08T07:40:09.982Z,14.21
2019-06-08T07:44:15.032Z,14.23
2019-06-08T07:48:20.184Z,14.37
2019-06-08T07:52:25.327Z,14.38
2019-06-08T07:56:30.518Z,14.52
2019-06-08T08:00:36.748Z,14.61
2019-06-08T08:04:41.810Z,14.60
2019-06-08T08:08:48.338Z,14.60
2019-06-08T08:12:54.750Z,14.64
2019-06-08T08:16:59.909Z,14.60
2019-06-08T08:21:17.831Z,14.47
2019-06-08T08:25:12.121Z,14.50
2019-06-08T08:29:17.675Z,14.49
2019-06-08T08:33:23.164Z,14.61
2019-06-08T08:37:28.649Z,14.73
2019-06-08T08:41:33.775Z,14.74
2019-06-08T08:45:40.683Z,14.66
2019-06-08T08:49:47.857Z,14.78
2019-06-08T08:53:55.830Z,15.28
2019-06-08T08:58:02.032Z,15.01
2019-06-08T09:02:11.006Z,15.18
2019-06-08T09:06:13.380Z,15.45
2019-06-08T09:10:18.643Z,15.43
2019-06-08T09:14:24.107Z,15.51
2019-06-08T09:18:29.286Z,15.62
2019-06-08T09:22:47.162Z,15.87
2019-06-08T09:26:41.469Z,15.63
2019-06-08T09:30:48.399Z,15.64
2019-06-08T09:34:54.641Z,15.96
2019-06-08T09:39:03.042Z,15.68
2019-06-08T09:43:12.774Z,15.62
2019-06-08T09:47:14.874Z,15.53
2019-06-08T09:51:20.171Z,15.38
2019-06-08T09:55:25.272Z,15.38
2019-06-08T09:59:30.426Z,15.96
2019-06-08T10:03:35.576Z,16.15
2019-06-08T10:07:40.705Z,16.15
2019-06-08T10:11:45.840Z,15.76
2019-06-08T10:15:51.520Z,15.91
2019-06-08T10:20:00.228Z,16.13
2019-06-08T10:24:06.131Z,16.13
2019-06-08T10:28:14.172Z,16.10
2019-06-08T10:32:19.271Z,15.92
2019-06-08T10:36:24.344Z,16.29
2019-06-08T10:40:29.462Z,16.34
2019-06-08T10:44:34.602Z,16.29
2019-06-08T10:48:39.725Z,15.79
2019-06-08T10:52:44.833Z,15.74
2019-06-08T10:56:50.057Z,15.67
2019-06-08T11:00:55.173Z,15.69
2019-06-08T11:05:04.758Z,15.67
2019-06-08T11:09:12.677Z,15.56
2019-06-08T11:13:15.332Z,15.63
2019-06-08T11:17:21.161Z,15.76
2019-06-08T11:21:28.610Z,16.04
2019-06-08T11:25:37.651Z,16.18
2019-06-08T11:29:42.877Z,16.02
2019-06-08T11:33:48.994Z,15.98
2019-06-08T11:37:54.409Z,15.92
2019-06-08T11:42:00.311Z,16.09
2019-06-08T11:46:06.616Z,16.47
2019-06-08T11:50:13.384Z,17.20
2019-06-08T11:54:32.884Z,16.96
2019-06-08T11:58:28.315Z,16.69
2019-06-08T12:02:33.995Z,17.06
2019-06-08T12:06:39.175Z,16.94
2019-06-08T12:10:44.375Z,17.12
2019-06-08T12:14:49.552Z,17.52
2019-06-08T12:18:54.638Z,17.46
2019-06-08T12:22:59.851Z,17.49
2019-06-08T12:27:14.385Z,17.65
2019-06-08T12:31:17.092Z,17.34
2019-06-08T12:35:18.813Z,17.40
2019-06-08T12:39:23.900Z,17.66
2019-06-08T12:43:29.073Z,17.87
2019-06-08T12:47:34.178Z,18.37
2019-06-08T12:51:40.315Z,18.24
2019-06-08T12:55:47.502Z,18.03
2019-06-08T12:59:52.228Z,18.70
2019-06-08T13:03:58.148Z,19.35
2019-06-08T13:08:03.318Z,19.16
2019-06-08T13:12:09.790Z,20.03
2019-06-08T13:16:19.354Z,18.98
2019-06-08T13:20:22.571Z,18.98
2019-06-08T13:24:28.522Z,18.23
2019-06-08T13:28:34.109Z,17.84
2019-06-08T13:32:40.762Z,17.72
2019-06-08T13:36:48.369Z,17.59
2019-06-08T13:40:52.838Z,17.52
2019-06-08T13:44:58.016Z,17.01
2019-06-08T13:49:03.213Z,17.65
2019-06-08T13:53:10.562Z,19.24
2019-06-08T13:57:19.993Z,20.27
2019-06-08T14:01:23.891Z,20.99
2019-06-08T14:05:31.053Z,20.76
2019-06-08T14:09:38.155Z,19.71
2019-06-08T14:13:42.900Z,20.20
2019-06-08T14:17:48.390Z,19.17
2019-06-08T14:21:53.550Z,18.74
2019-06-08T14:26:00.245Z,18.31
2019-06-08T14:30:08.312Z,17.98
2019-06-08T14:34:13.094Z,17.81
2019-06-08T14:38:22.510Z,17.81
2019-06-08T14:42:29.700Z,17.92
2019-06-08T14:46:31.778Z,17.70
2019-06-08T14:50:40.238Z,17.59
2019-06-08T14:54:43.865Z,18.59
2019-06-08T14:58:49.339Z,19.79
2019-06-08T15:02:54.453Z,17.91
2019-06-08T15:06:59.686Z,17.68
2019-06-08T15:11:04.874Z,16.31
2019-06-08T15:15:11.158Z,14.81
2019-06-08T15:19:18.445Z,15.26
2019-06-08T15:23:24.663Z,18.13
2019-06-08T15:27:33.034Z,21.48
2019-06-08T15:31:38.928Z,19.48
2019-06-08T15:35:43.686Z,18.70
2019-06-08T15:39:51.474Z,17.55
2019-06-08T15:43:57.517Z,17.05
2019-06-08T15:48:02.426Z,16.27
2019-06-08T15:52:07.573Z,15.07
2019-06-08T15:56:12.756Z,14.67
2019-06-08T16:00:18.587Z,13.23
2019-06-08T16:04:23.707Z,12.79
2019-06-08T16:08:30.288Z,12.86
2019-06-08T16:12:35.381Z,13.71
2019-06-08T16:16:40.541Z,16.04
2019-06-08T16:20:46.003Z,14.49
2019-06-08T16:24:51.159Z,13.85
2019-06-08T16:28:56.292Z,13.84
2019-06-08T16:33:01.346Z,13.87
2019-06-08T16:37:06.462Z,14.03
2019-06-08T16:41:11.648Z,14.04
2019-06-08T16:45:16.994Z,14.16
2019-06-08T16:49:22.124Z,14.37
2019-06-08T16:53:27.468Z,14.26
2019-06-08T16:57:35.093Z,14.56
2019-06-08T17:01:39.533Z,15.57
2019-06-08T17:05:44.712Z,18.42
2019-06-08T17:09:49.810Z,18.42
2019-06-08T17:13:54.853Z,17.22
2019-06-08T17:17:59.964Z,16.08
2019-06-08T17:22:05.052Z,17.11
2019-06-08T17:26:10.147Z,19.60
2019-06-08T17:30:15.557Z,19.71
2019-06-08T17:34:20.912Z,19.87
2019-06-08T17:38:27.030Z,21.17
2019-06-08T17:42:32.188Z,20.75
2019-06-08T17:46:39.050Z,20.67
2019-06-08T17:50:44.504Z,19.60
2019-06-08T17:54:49.635Z,21.29
2019-06-08T17:58:54.802Z,20.02
2019-06-08T18:03:00.625Z,18.84
2019-06-08T18:07:07.173Z,18.54
2019-06-08T18:11:12.935Z,16.74
2019-06-08T18:15:18.040Z,16.29
2019-06-08T18:19:28.286Z,16.05
2019-06-08T18:23:34.323Z,16.06
2019-06-08T18:27:42.088Z,16.35
2019-06-08T18:31:48.115Z,16.34
2019-06-08T18:35:54.251Z,16.45
2019-06-08T18:39:59.425Z,17.05
2019-06-08T18:44:04.539Z,18.13
2019-06-08T18:48:09.627Z,18.22
2019-06-08T18:52:14.711Z,18.86
2019-06-08T18:56:19.870Z,18.74
2019-06-08T19:00:40.060Z,18.22
2019-06-08T19:04:43.293Z,18.07
2019-06-08T19:08:50.553Z,17.75
2019-06-08T19:12:55.451Z,17.68
2019-06-08T19:17:00.837Z,17.49
2019-06-08T19:21:07.785Z,17.04
2019-06-08T19:25:12.967Z,16.56
2019-06-08T19:29:19.400Z,16.13
2019-06-08T19:33:24.632Z,15.68
2019-06-08T19:37:32.705Z,15.43
2019-06-08T19:41:38.119Z,14.87
2019-06-08T19:45:44.259Z,14.59
2019-06-08T19:49:54.482Z,14.39
2019-06-08T19:53:58.506Z,14.25
2019-06-08T19:58:04.921Z,14.10
2019-06-08T20:02:10.068Z,14.04
2019-06-08T20:06:17.586Z,13.98
2019-06-08T20:10:22.069Z,13.77
2019-06-08T20:14:27.137Z,13.73
2019-06-08T20:18:32.282Z,13.69
2019-06-08T20:22:37.909Z,13.52
2019-06-08T20:26:44.186Z,13.37
2019-06-08T20:30:50.563Z,13.34
2019-06-08T20:34:57.498Z,13.18
2019-06-08T20:39:02.724Z,13.05
2019-06-08T20:43:09.780Z,12.98
2019-06-08T20:47:14.857Z,13.06
2019-06-08T20:51:19.987Z,13.03
2019-06-08T20:55:25.278Z,12.93
2019-06-08T20:59:34.026Z,12.91
2019-06-08T21:03:37.256Z,12.85
2019-06-08T21:07:42.347Z,12.79
2019-06-08T21:11:49.790Z,12.73
2019-06-08T21:15:57.271Z,12.60
2019-06-08T21:20:01.041Z,12.64
2019-06-08T21:24:07.875Z,12.58
2019-06-08T21:28:13.160Z,12.51
2019-06-08T21:32:21.535Z,12.57
2019-06-08T21:36:25.124Z,12.53
2019-06-08T21:40:30.293Z,12.37
2019-06-08T21:44:37.241Z,12.42
2019-06-08T21:48:42.331Z,12.31
2019-06-08T21:52:48.960Z,12.30
2019-06-08T21:56:54.738Z,12.21
2019-06-08T22:01:01.145Z,12.20
2019-06-08T22:05:08.194Z,12.16
2019-06-08T22:09:13.476Z,11.96
2019-06-08T22:13:18.681Z,11.98
2019-06-08T22:17:23.794Z,11.88
2019-06-08T22:21:29.083Z,11.88
2019-06-08T22:25:34.231Z,11.77
2019-06-08T22:29:39.310Z,11.66
2019-06-08T22:33:44.683Z,11.71
2019-06-08T22:37:51.716Z,11.68
2019-06-08T22:41:58.514Z,11.69
2019-06-08T22:46:04.286Z,11.57
2019-06-08T22:50:10.692Z,11.53
2019-06-08T22:54:17.039Z,11.40
2019-06-08T22:58:22.179Z,11.45
2019-06-08T23:02:27.829Z,11.37
2019-06-08T23:06:33.251Z,11.36
2019-06-08T23:10:38.356Z,11.47
2019-06-08T23:14:44.463Z,11.47
2019-06-08T23:18:49.663Z,11.38
2019-06-08T23:22:55.659Z,11.38
2019-06-08T23:27:02.140Z,11.42
2019-06-08T23:31:19.318Z,11.36
2019-06-08T23:35:14.305Z,11.30
2019-06-08T23:39:19.380Z,11.34
2019-06-08T23:43:24.460Z,11.28
2019-06-08T23:47:29.548Z,11.19
2019-06-08T23:51:34.694Z,11.13
2019-06-08T23:55:39.912Z,11.14
2019-06-08T23:59:47.824Z,11.21
